« Back
NWS Peachtree City, Ga » Text Product » ATL Terminal Aerodrome Forecast


Printer-friendly Version
Current Version              Previous Versions:   1  2  3  4  5  6  7  8  9  

Terminal Aerodrome Forecast

454
FTUS42 KFFC 120936 AAB
TAFATL
TAF AMD
KATL 120936Z 1210/1312 04004KT P6SM SCT070 BKN120
     FM121300 02003KT P6SM BKN050 BKN120
     FM121500 02005KT P6SM BKN035
     FM121800 28007KT P6SM SCT045
     FM122100 29010G20KT P6SM FEW050
     FM130400 32014G22KT P6SM SKC=

USA.gov is the U.S. government's official web portal to all federal, state and local government web resources and services.